Time;durP1;ratioP1;P1;durP2;ratioP2;P2;SDS_P1;SDS_P2;PMS_P1;PMS_P2;Temp;Humidity;BMP_temperature;BMP_pressure;BME280_temperature;BME280_humidity;BME280_pressure;Samples;Min_cycle;Max_cycle;Signal;HPM_P1;HPM_P2
2021/10/08 00:00:15;;;;;;;;;11.25;10.00;;;;;;;;5061798;28;11635;-82
2021/10/08 00:02:42;;;;;;;;;10.75;10.75;;;;;;;;5061308;28;11616;-80
2021/10/08 00:05:10;;;;;;;;;19.00;15.50;;;;;;;;5062718;28;11518;-84
2021/10/08 00:07:38;;;;;;;;;10.75;10.75;;;;;;;;5063782;28;11598;-80
2021/10/08 00:10:07;;;;;;;;;12.50;11.25;;;;;;;;5063822;28;11490;-81
2021/10/08 00:12:36;;;;;;;;;12.75;11.00;;;;;;;;5044306;28;11517;-81
2021/10/08 00:15:04;;;;;;;;;14.00;11.25;;;;;;;;5045367;28;12364;-83
2021/10/08 00:17:31;;;;;;;;;14.25;14.25;;;;;;;;5062539;28;11590;-79
2021/10/08 00:19:58;;;;;;;;;12.50;12.00;;;;;;;;5063203;28;11477;-80
2021/10/08 00:22:25;;;;;;;;;17.00;14.00;;;;;;;;5061684;28;11650;-76
2021/10/08 00:24:53;;;;;;;;;13.75;13.75;;;;;;;;5062805;28;11502;-75
2021/10/08 00:27:20;;;;;;;;;15.50;14.00;;;;;;;;5062915;28;11511;-75
2021/10/08 00:29:49;;;;;;;;;16.75;15.00;;;;;;;;5062817;28;11625;-79
2021/10/08 00:32:16;;;;;;;;;14.50;12.25;;;;;;;;5061195;28;11420;-76
2021/10/08 00:34:43;;;;;;;;;12.00;12.00;;;;;;;;5061448;28;11461;-78
2021/10/08 00:37:10;;;;;;;;;18.00;15.25;;;;;;;;5062067;28;11455;-81
2021/10/08 00:39:38;;;;;;;;;12.50;11.50;;;;;;;;5059736;28;11602;-75
2021/10/08 00:42:06;;;;;;;;;15.00;15.00;;;;;;;;5057661;28;11568;-75
2021/10/08 00:44:34;;;;;;;;;13.00;13.00;;;;;;;;5060918;28;12493;-75
2021/10/08 00:47:12;;;;;;;;;15.50;13.50;;;;;;;;5062517;28;11475;-75
2021/10/08 00:49:40;;;;;;;;;8.50;8.50;;;;;;;;5055385;28;11566;-75
2021/10/08 00:52:07;;;;;;;;;14.00;12.25;;;;;;;;5061583;28;11474;-75
2021/10/08 00:54:35;;;;;;;;;14.25;13.75;;;;;;;;5062688;28;11469;-75
2021/10/08 00:57:02;;;;;;;;;11.25;9.75;;;;;;;;5061691;28;11484;-76
2021/10/08 00:59:30;;;;;;;;;17.00;17.00;;;;;;;;5063285;28;11498;-78
2021/10/08 01:01:58;;;;;;;;;10.25;8.75;;;;;;;;5044576;28;11490;-80
2021/10/08 01:04:27;;;;;;;;;10.50;10.50;;;;;;;;5061912;28;11589;-80
2021/10/08 01:06:54;;;;;;;;;10.00;10.00;;;;;;;;5062974;28;11478;-80
2021/10/08 01:09:21;;;;;;;;;12.25;12.25;;;;;;;;5063010;28;11461;-79
2021/10/08 01:11:48;;;;;;;;;13.50;10.75;;;;;;;;5066882;28;11488;-77
2021/10/08 01:14:16;;;;;;;;;15.00;11.50;;;;;;;;5063785;28;11544;-75
2021/10/08 01:16:43;;;;;;;;;10.25;8.25;;;;;;;;5066301;28;11503;-76
2021/10/08 01:19:12;;;;;;;;;12.75;10.75;;;;;;;;5065092;28;11439;-79
2021/10/08 01:21:41;;;;;;;;;15.25;11.50;;;;;;;;5064167;28;11613;-78
2021/10/08 01:24:08;;;;;;;;;12.25;12.25;;;;;;;;5065986;28;11457;-78
2021/10/08 01:26:36;;;;;;;;;11.50;11.50;;;;;;;;5065280;28;11547;-77
2021/10/08 01:29:03;;;;;;;;;10.00;10.00;;;;;;;;5065426;28;11600;-78
2021/10/08 01:31:30;;;;;;;;;11.00;11.00;;;;;;;;5064769;28;11384;-83
2021/10/08 01:33:58;;;;;;;;;11.25;11.25;;;;;;;;5064481;28;12352;-75
2021/10/08 01:36:25;;;;;;;;;11.50;10.00;;;;;;;;5045992;28;11467;-79
2021/10/08 01:38:54;;;;;;;;;13.00;12.00;;;;;;;;5065232;28;11493;-74
2021/10/08 01:41:21;;;;;;;;;11.75;10.75;;;;;;;;5062566;28;11652;-76
2021/10/08 01:43:50;;;;;;;;;15.50;13.50;;;;;;;;5063097;28;11510;-77
2021/10/08 01:46:17;;;;;;;;;11.00;11.00;;;;;;;;5066640;28;11501;-77
2021/10/08 01:48:44;;;;;;;;;12.50;12.50;;;;;;;;5065537;28;11618;-77
2021/10/08 01:51:11;;;;;;;;;12.00;11.00;;;;;;;;5062779;28;11565;-80
2021/10/08 01:53:39;;;;;;;;;14.00;12.75;;;;;;;;5065173;28;11481;-73
2021/10/08 01:56:08;;;;;;;;;14.75;13.75;;;;;;;;5047600;28;11472;-81
2021/10/08 01:58:35;;;;;;;;;13.50;12.00;;;;;;;;5065813;28;11468;-83
2021/10/08 02:01:02;;;;;;;;;14.75;14.75;;;;;;;;5059825;28;11428;-75
2021/10/08 02:03:30;;;;;;;;;10.50;8.50;;;;;;;;5065478;28;11496;-80
2021/10/08 02:05:57;;;;;;;;;15.25;14.50;;;;;;;;5063589;28;11611;-79
2021/10/08 02:08:24;;;;;;;;;15.75;11.50;;;;;;;;5066605;28;11579;-80
2021/10/08 02:10:52;;;;;;;;;13.50;13.50;;;;;;;;5064522;28;11633;-75
2021/10/08 02:13:21;;;;;;;;;14.75;14.50;;;;;;;;5060662;28;11525;-76
2021/10/08 02:15:48;;;;;;;;;14.00;14.00;;;;;;;;5065127;28;11518;-82
2021/10/08 02:18:16;;;;;;;;;11.25;11.25;;;;;;;;5064690;28;11594;-75
2021/10/08 02:20:43;;;;;;;;;10.00;7.00;;;;;;;;5063946;28;11532;-76
2021/10/08 02:23:10;;;;;;;;;11.50;10.00;;;;;;;;5061836;28;11480;-75
2021/10/08 02:25:38;;;;;;;;;12.25;11.00;;;;;;;;5065072;28;11475;-76
2021/10/08 02:28:05;;;;;;;;;15.00;13.00;;;;;;;;5064807;28;11454;-76
2021/10/08 02:30:34;;;;;;;;;16.25;14.25;;;;;;;;5063704;28;11407;-82
2021/10/08 02:33:01;;;;;;;;;18.25;18.25;;;;;;;;5063807;28;11619;-83
2021/10/08 02:35:29;;;;;;;;;14.25;14.25;;;;;;;;5063626;28;11504;-80
2021/10/08 02:37:56;;;;;;;;;20.25;16.25;;;;;;;;5064338;28;11506;-79
2021/10/08 02:40:24;;;;;;;;;19.00;15.25;;;;;;;;5060614;28;11506;-75
2021/10/08 02:42:51;;;;;;;;;15.50;15.00;;;;;;;;5064742;28;11504;-74
2021/10/08 02:45:20;;;;;;;;;21.50;15.00;;;;;;;;5056398;28;11493;-76
2021/10/08 02:47:49;;;;;;;;;14.75;14.75;;;;;;;;5063546;28;12274;-77
2021/10/08 02:50:17;;;;;;;;;17.25;17.25;;;;;;;;5064201;28;11739;-76
2021/10/08 02:52:45;;;;;;;;;18.75;15.50;;;;;;;;5061130;28;11614;-79
2021/10/08 02:55:12;;;;;;;;;14.00;13.00;;;;;;;;5060476;28;11486;-76
2021/10/08 02:57:40;;;;;;;;;15.25;15.25;;;;;;;;5062732;28;11490;-78
2021/10/08 03:00:09;;;;;;;;;17.50;15.00;;;;;;;;5064206;28;11476;-76
2021/10/08 03:02:38;;;;;;;;;15.00;15.00;;;;;;;;5062128;28;11598;-75
2021/10/08 03:05:08;;;;;;;;;16.75;14.00;;;;;;;;5064460;28;11584;-79
2021/10/08 03:07:36;;;;;;;;;15.00;15.00;;;;;;;;5064047;28;11499;-78
2021/10/08 03:10:05;;;;;;;;;11.00;11.00;;;;;;;;5063817;28;11605;-78
2021/10/08 03:12:33;;;;;;;;;18.75;13.00;;;;;;;;5064791;28;11491;-77
2021/10/08 03:15:00;;;;;;;;;18.00;15.00;;;;;;;;5062802;28;11627;-79
2021/10/08 03:17:27;;;;;;;;;12.25;10.75;;;;;;;;5063345;28;11494;-80
2021/10/08 03:19:55;;;;;;;;;14.25;14.00;;;;;;;;5062997;28;11516;-75
2021/10/08 03:22:24;;;;;;;;;5.75;4.25;;;;;;;;5063366;28;11503;-75
2021/10/08 03:24:51;;;;;;;;;14.75;12.75;;;;;;;;5063768;28;12156;-75
2021/10/08 03:27:18;;;;;;;;;13.50;13.50;;;;;;;;5062813;28;11501;-75
2021/10/08 03:29:46;;;;;;;;;14.75;14.75;;;;;;;;5064257;28;11484;-75
2021/10/08 03:32:13;;;;;;;;;16.00;16.00;;;;;;;;5042940;28;11428;-76
2021/10/08 03:34:41;;;;;;;;;14.00;14.00;;;;;;;;5064431;28;11498;-78
2021/10/08 03:37:10;;;;;;;;;14.00;14.00;;;;;;;;5062062;28;11474;-74
2021/10/08 03:39:41;;;;;;;;;12.75;12.75;;;;;;;;5063317;28;11577;-79
2021/10/08 03:42:12;;;;;;;;;12.00;10.25;;;;;;;;5061422;28;11544;-77
2021/10/08 03:44:40;;;;;;;;;10.75;10.00;;;;;;;;5060061;28;11593;-77
2021/10/08 03:47:14;;;;;;;;;12.00;12.00;;;;;;;;5050362;28;11460;-76
2021/10/08 03:49:41;;;;;;;;;10.00;10.00;;;;;;;;5062551;28;11470;-72
2021/10/08 03:52:09;;;;;;;;;18.25;14.50;;;;;;;;5063785;28;11634;-75
2021/10/08 03:54:38;;;;;;;;;12.50;10.25;;;;;;;;5062280;28;11472;-79
2021/10/08 03:57:05;;;;;;;;;13.50;13.50;;;;;;;;5064046;28;11462;-77
2021/10/08 03:59:32;;;;;;;;;21.25;12.00;;;;;;;;5062636;28;11482;-76
2021/10/08 04:02:01;;;;;;;;;13.00;12.75;;;;;;;;5066542;28;11466;-80
2021/10/08 04:04:28;;;;;;;;;15.00;10.75;;;;;;;;5064701;28;11511;-75
2021/10/08 04:06:55;;;;;;;;;20.00;14.25;;;;;;;;5058886;28;11414;-76
2021/10/08 04:09:22;;;;;;;;;12.25;12.25;;;;;;;;5063670;28;12293;-74
2021/10/08 04:11:51;;;;;;;;;14.25;14.25;;;;;;;;5062126;28;11601;-77
2021/10/08 04:14:19;;;;;;;;;15.25;14.25;;;;;;;;5062878;28;11481;-75
2021/10/08 04:16:46;;;;;;;;;14.50;14.50;;;;;;;;5061920;28;11550;-75
2021/10/08 04:19:13;;;;;;;;;18.75;13.50;;;;;;;;5063202;28;11474;-77
2021/10/08 04:21:41;;;;;;;;;14.50;14.50;;;;;;;;5063247;28;11539;-76
2021/10/08 04:24:08;;;;;;;;;13.75;13.25;;;;;;;;5062729;28;12303;-74
2021/10/08 04:26:36;;;;;;;;;18.50;14.00;;;;;;;;5063895;28;11476;-75
2021/10/08 04:29:04;;;;;;;;;18.75;17.50;;;;;;;;5062692;28;11475;-77
2021/10/08 04:31:31;;;;;;;;;15.00;15.00;;;;;;;;5059335;28;11434;-75
2021/10/08 04:33:59;;;;;;;;;18.00;15.75;;;;;;;;5061968;28;11444;-78
2021/10/08 04:36:26;;;;;;;;;17.25;13.00;;;;;;;;5062172;28;11493;-75
2021/10/08 04:38:53;;;;;;;;;19.50;19.00;;;;;;;;5062835;28;11519;-77
2021/10/08 04:41:20;;;;;;;;;15.25;14.00;;;;;;;;5062856;28;11545;-79
2021/10/08 04:43:48;;;;;;;;;15.50;15.50;;;;;;;;5064626;28;11532;-79
2021/10/08 04:46:16;;;;;;;;;15.75;15.50;;;;;;;;5047331;28;11465;-75
2021/10/08 04:48:44;;;;;;;;;14.25;13.50;;;;;;;;5062002;28;11490;-77
2021/10/08 04:51:12;;;;;;;;;11.00;11.00;;;;;;;;5047633;28;11520;-75
2021/10/08 04:53:39;;;;;;;;;19.00;17.25;;;;;;;;5065840;28;11460;-77
2021/10/08 04:56:06;;;;;;;;;16.00;16.00;;;;;;;;5065739;28;11475;-81
2021/10/08 04:58:34;;;;;;;;;18.25;16.00;;;;;;;;5065623;28;11610;-83
2021/10/08 05:01:02;;;;;;;;;19.50;18.25;;;;;;;;5066401;28;11436;-80
2021/10/08 05:03:31;;;;;;;;;16.00;16.00;;;;;;;;5064664;28;11499;-78
2021/10/08 05:05:59;;;;;;;;;21.50;21.50;;;;;;;;5065700;28;11507;-78
2021/10/08 05:08:26;;;;;;;;;16.25;16.25;;;;;;;;5063734;28;11507;-81
2021/10/08 05:10:54;;;;;;;;;23.75;21.50;;;;;;;;5065801;28;11490;-76
2021/10/08 05:13:21;;;;;;;;;14.25;14.25;;;;;;;;5064965;28;11608;-76
2021/10/08 05:15:48;;;;;;;;;26.50;21.00;;;;;;;;5064940;28;11218;-74
2021/10/08 05:18:15;;;;;;;;;19.75;15.25;;;;;;;;5065694;28;12043;-75
2021/10/08 05:20:44;;;;;;;;;20.25;19.00;;;;;;;;5062271;28;11239;-76
2021/10/08 05:23:12;;;;;;;;;15.00;11.25;;;;;;;;5064345;28;11464;-77
2021/10/08 05:25:39;;;;;;;;;20.75;20.50;;;;;;;;5063001;28;11019;-76
2021/10/08 05:28:06;;;;;;;;;20.50;18.75;;;;;;;;5066427;28;11304;-76
2021/10/08 05:30:34;;;;;;;;;21.75;20.50;;;;;;;;5052945;28;11172;-74
2021/10/08 05:33:01;;;;;;;;;20.50;20.50;;;;;;;;5063121;28;11860;-80
2021/10/08 05:35:28;;;;;;;;;32.00;25.00;;;;;;;;5064080;28;11015;-77
2021/10/08 05:37:57;;;;;;;;;27.25;24.50;;;;;;;;5063631;28;11402;-76
2021/10/08 05:40:24;;;;;;;;;22.25;20.25;;;;;;;;5065616;28;11271;-76
2021/10/08 05:42:53;;;;;;;;;27.00;25.00;;;;;;;;5064926;28;11148;-77
2021/10/08 05:45:21;;;;;;;;;26.75;22.25;;;;;;;;5065655;28;11090;-79
2021/10/08 05:47:48;;;;;;;;;27.25;26.25;;;;;;;;5064480;28;11234;-79
2021/10/08 05:50:18;;;;;;;;;31.00;26.00;;;;;;;;5065527;28;11189;-80
2021/10/08 05:52:45;;;;;;;;;28.00;24.50;;;;;;;;5064466;28;11049;-78
2021/10/08 05:55:14;;;;;;;;;24.00;21.25;;;;;;;;5046315;28;10982;-75
2021/10/08 05:57:41;;;;;;;;;34.00;29.00;;;;;;;;5065079;28;12089;-76
2021/10/08 06:00:09;;;;;;;;;33.25;27.50;;;;;;;;5063710;28;11335;-77
2021/10/08 06:02:37;;;;;;;;;23.25;23.25;;;;;;;;5064672;28;11049;-75
2021/10/08 06:05:05;;;;;;;;;25.25;24.00;;;;;;;;5064153;28;11149;-77
2021/10/08 06:07:33;;;;;;;;;27.75;23.50;;;;;;;;5065284;28;11075;-76
2021/10/08 06:10:00;;;;;;;;;21.75;21.75;;;;;;;;5033261;28;11290;-78
2021/10/08 06:12:28;;;;;;;;;23.75;23.75;;;;;;;;5062655;28;11611;-77
2021/10/08 06:14:56;;;;;;;;;30.75;24.75;;;;;;;;5064409;28;10783;-76
2021/10/08 06:17:23;;;;;;;;;25.75;25.75;;;;;;;;5063482;28;11153;-77
2021/10/08 06:19:50;;;;;;;;;24.75;22.50;;;;;;;;5064212;28;10978;-78
2021/10/08 06:22:18;;;;;;;;;27.50;24.75;;;;;;;;5063106;28;11039;-79
2021/10/08 06:24:45;;;;;;;;;21.50;17.25;;;;;;;;5065257;28;11015;-79
2021/10/08 06:27:12;;;;;;;;;13.50;13.50;;;;;;;;5063401;28;10872;-79
2021/10/08 06:29:44;;;;;;;;;21.25;21.25;;;;;;;;5045795;28;10764;-80
2021/10/08 06:32:12;;;;;;;;;28.00;21.50;;;;;;;;5062640;28;10787;-77
2021/10/08 06:34:39;;;;;;;;;22.75;22.75;;;;;;;;5041776;28;10842;-79
2021/10/08 06:37:07;;;;;;;;;21.75;21.75;;;;;;;;5059684;28;10819;-73
2021/10/08 06:39:34;;;;;;;;;23.75;23.25;;;;;;;;5060525;28;11681;-72
2021/10/08 06:42:01;;;;;;;;;24.75;23.50;;;;;;;;5064017;28;10867;-73
2021/10/08 06:44:29;;;;;;;;;25.25;24.75;;;;;;;;5059981;28;10877;-72
2021/10/08 06:46:58;;;;;;;;;28.25;23.25;;;;;;;;5063095;28;10886;-72
2021/10/08 06:49:25;;;;;;;;;23.00;23.00;;;;;;;;5060961;28;10820;-72
2021/10/08 06:51:52;;;;;;;;;29.00;27.25;;;;;;;;5060082;28;10736;-72
2021/10/08 06:54:20;;;;;;;;;26.75;22.00;;;;;;;;5063379;28;11044;-73
2021/10/08 06:56:47;;;;;;;;;27.00;22.50;;;;;;;;5055040;28;10890;-73
2021/10/08 06:59:15;;;;;;;;;20.00;20.00;;;;;;;;5057500;28;10957;-73
2021/10/08 07:01:42;;;;;;;;;24.00;21.25;;;;;;;;5062084;28;10550;-72
2021/10/08 07:04:12;;;;;;;;;17.50;17.50;;;;;;;;5064355;28;10791;-73
2021/10/08 07:06:39;;;;;;;;;23.00;22.50;;;;;;;;5062645;28;10632;-73
2021/10/08 07:09:06;;;;;;;;;23.25;20.50;;;;;;;;5063870;28;10578;-73
2021/10/08 07:11:33;;;;;;;;;19.75;19.00;;;;;;;;5063384;28;10511;-73
2021/10/08 07:14:01;;;;;;;;;24.00;22.75;;;;;;;;5062513;28;10530;-73
2021/10/08 07:16:28;;;;;;;;;16.25;14.50;;;;;;;;5062701;28;10502;-74
2021/10/08 07:18:58;;;;;;;;;19.75;19.75;;;;;;;;5059266;28;10578;-74
2021/10/08 07:21:26;;;;;;;;;26.50;21.25;;;;;;;;5060711;28;10423;-72
2021/10/08 07:23:54;;;;;;;;;34.50;31.25;;;;;;;;5059453;28;10641;-73
2021/10/08 07:26:22;;;;;;;;;32.75;31.50;;;;;;;;5064321;28;10827;-72
2021/10/08 07:28:50;;;;;;;;;28.25;28.00;;;;;;;;5061353;28;10798;-74
2021/10/08 07:31:17;;;;;;;;;36.25;33.25;;;;;;;;5058819;28;10775;-72
2021/10/08 07:33:45;;;;;;;;;28.00;23.50;;;;;;;;5063127;28;10700;-72
2021/10/08 07:36:13;;;;;;;;;35.75;30.00;;;;;;;;5060601;28;11355;-73
2021/10/08 07:38:42;;;;;;;;;20.50;18.25;;;;;;;;5063815;28;10791;-74
2021/10/08 07:41:10;;;;;;;;;19.50;19.00;;;;;;;;5062748;28;10455;-72
2021/10/08 07:43:40;;;;;;;;;18.25;17.00;;;;;;;;5063451;28;10608;-72
2021/10/08 07:46:07;;;;;;;;;20.25;18.50;;;;;;;;5063380;28;10586;-73
2021/10/08 07:48:35;;;;;;;;;21.75;20.00;;;;;;;;5063110;28;10523;-73
2021/10/08 07:51:02;;;;;;;;;25.25;23.75;;;;;;;;5061197;28;10427;-72
2021/10/08 07:53:31;;;;;;;;;19.75;18.00;;;;;;;;5044670;28;10294;-72
2021/10/08 07:56:00;;;;;;;;;13.75;11.50;;;;;;;;5063622;28;10447;-73
2021/10/08 07:58:28;;;;;;;;;20.00;18.00;;;;;;;;5059723;28;10198;-73
2021/10/08 08:00:56;;;;;;;;;18.50;18.50;;;;;;;;5062749;28;10043;-74
2021/10/08 08:03:23;;;;;;;;;19.50;18.50;;;;;;;;5045250;28;10197;-74
2021/10/08 08:05:51;;;;;;;;;29.50;24.50;;;;;;;;5062089;28;10296;-74
2021/10/08 08:08:18;;;;;;;;;14.50;14.50;;;;;;;;5062764;28;10219;-73
2021/10/08 08:10:46;;;;;;;;;21.50;20.00;;;;;;;;5062100;28;10789;-74
2021/10/08 08:13:15;;;;;;;;;21.50;21.50;;;;;;;;5062450;28;10047;-73
2021/10/08 08:15:43;;;;;;;;;20.00;17.75;;;;;;;;5043958;28;10122;-74
2021/10/08 08:18:10;;;;;;;;;27.00;24.75;;;;;;;;5060873;28;10130;-73
2021/10/08 08:20:38;;;;;;;;;21.00;21.00;;;;;;;;5063750;28;10260;-74
2021/10/08 08:23:05;;;;;;;;;20.75;19.25;;;;;;;;5066658;28;10965;-74
2021/10/08 08:25:32;;;;;;;;;27.00;25.00;;;;;;;;5066868;28;10175;-73
2021/10/08 08:28:00;;;;;;;;;31.00;25.00;;;;;;;;5059796;28;10145;-73
2021/10/08 08:30:29;;;;;;;;;28.50;23.00;;;;;;;;5045722;28;10148;-72
2021/10/08 08:32:56;;;;;;;;;20.75;20.75;;;;;;;;5065907;28;10091;-73
2021/10/08 08:35:24;;;;;;;;;25.25;25.25;;;;;;;;5048597;28;10034;-72
2021/10/08 08:37:51;;;;;;;;;25.75;25.75;;;;;;;;5065177;28;10128;-74
2021/10/08 08:40:18;;;;;;;;;21.00;19.25;;;;;;;;5064849;28;10046;-72
2021/10/08 08:42:46;;;;;;;;;27.00;27.00;;;;;;;;5064611;28;9945;-74
2021/10/08 08:45:13;;;;;;;;;32.75;30.75;;;;;;;;5045718;28;10028;-75
2021/10/08 08:47:42;;;;;;;;;27.50;26.25;;;;;;;;5066521;28;10109;-73
2021/10/08 08:50:15;;;;;;;;;23.75;23.75;;;;;;;;5065324;28;9969;-73
2021/10/08 08:52:46;;;;;;;;;22.00;22.00;;;;;;;;5066314;28;9805;-75
2021/10/08 08:55:13;;;;;;;;;22.25;22.25;;;;;;;;5065688;28;9829;-74
2021/10/08 08:57:40;;;;;;;;;24.00;22.00;;;;;;;;5064211;28;9879;-75
2021/10/08 09:00:12;;;;;;;;;21.25;21.25;;;;;;;;5066162;28;9720;-77
2021/10/08 09:02:41;;;;;;;;;26.75;23.50;;;;;;;;5063768;28;9630;-74
2021/10/08 09:05:17;;;;;;;;;24.25;20.00;;;;;;;;5065988;28;9495;-73
2021/10/08 09:07:45;;;;;;;;;19.75;16.75;;;;;;;;5064022;28;9638;-74
2021/10/08 09:10:14;;;;;;;;;26.75;23.50;;;;;;;;5063549;28;9406;-72
2021/10/08 09:12:43;;;;;;;;;22.25;20.50;;;;;;;;5058553;28;9565;-73
2021/10/08 09:15:11;;;;;;;;;20.50;19.50;;;;;;;;5061271;28;9426;-75
2021/10/08 09:17:39;;;;;;;;;19.00;18.33;;;;;;;;5064938;28;9402;-75
2021/10/08 09:20:10;;;;;;;;;21.67;17.33;;;;;;;;5063620;28;9446;-75
2021/10/08 09:22:50;;;;;;;;;23.00;22.33;;;;;;;;5065456;28;9319;-74
2021/10/08 09:25:20;;;;;;;;;23.00;22.33;;;;;;;;5064681;28;9372;-74
2021/10/08 09:27:50;;;;;;;;;25.33;23.33;;;;;;;;5064587;28;9220;-72
2021/10/08 09:30:18;;;;;;;;;25.00;23.67;;;;;;;;5060872;28;9353;-74
2021/10/08 09:32:47;;;;;;;;;27.33;25.00;;;;;;;;5060979;28;9228;-72
2021/10/08 09:35:18;;;;;;;;;23.25;23.25;;;;;;;;5061299;28;8962;-73
2021/10/08 09:37:55;;;;;;;;;30.25;24.50;;;;;;;;5045478;28;8898;-74
2021/10/08 09:40:28;;;;;;;;;22.00;20.00;;;;;;;;5060248;28;8876;-71
2021/10/08 09:43:01;;;;;;;;;25.25;21.00;;;;;;;;5044552;28;9685;-75
2021/10/08 09:45:43;;;;;;;;;21.67;20.33;;;;;;;;5058384;28;8891;-75
2021/10/08 09:48:12;;;;;;;;;18.00;17.75;;;;;;;;5050914;28;8952;-73
2021/10/08 09:51:03;;;;;;;;;22.75;22.75;;;;;;;;5044854;28;8895;-73
2021/10/08 09:53:32;;;;;;;;;23.00;21.75;;;;;;;;5064409;28;8860;-73
2021/10/08 09:56:00;;;;;;;;;21.00;21.00;;;;;;;;5039654;28;8882;-73
2021/10/08 09:58:27;;;;;;;;;23.50;21.50;;;;;;;;5061664;28;8878;-73
2021/10/08 10:01:00;;;;;;;;;23.25;18.75;;;;;;;;5065213;28;8781;-73
2021/10/08 10:03:29;;;;;;;;;14.00;12.00;;;;;;;;5063009;28;8880;-73
2021/10/08 10:06:00;;;;;;;;;17.75;17.75;;;;;;;;5065028;28;8902;-74
2021/10/08 10:08:27;;;;;;;;;19.25;19.25;;;;;;;;5063982;28;8852;-73
2021/10/08 10:10:56;;;;;;;;;19.00;17.50;;;;;;;;5065729;28;8888;-76
2021/10/08 10:13:24;;;;;;;;;18.25;17.00;;;;;;;;5062007;28;8848;-71
2021/10/08 10:15:51;;;;;;;;;15.00;15.00;;;;;;;;5064708;28;8861;-74
2021/10/08 10:18:20;;;;;;;;;17.67;16.00;;;;;;;;5053061;28;9621;-71
2021/10/08 10:20:50;;;;;;;;;16.00;15.25;;;;;;;;5062807;28;8872;-73
2021/10/08 10:23:21;;;;;;;;;18.25;16.25;;;;;;;;5064012;28;8864;-72
2021/10/08 10:25:51;;;;;;;;;16.00;16.00;;;;;;;;5060999;28;8844;-73
2021/10/08 10:28:19;;;;;;;;;12.25;10.25;;;;;;;;5061848;28;8860;-73
2021/10/08 10:30:49;;;;;;;;;7.50;7.50;;;;;;;;5041518;28;8793;-74
2021/10/08 10:33:17;;;;;;;;;13.50;11.00;;;;;;;;5059482;28;9535;-73
2021/10/08 10:35:47;;;;;;;;;12.50;10.75;;;;;;;;5058814;28;8867;-74
2021/10/08 10:38:36;;;;;;;;;10.25;9.00;;;;;;;;5063417;28;8868;-73
2021/10/08 10:41:22;;;;;;;;;14.25;13.75;;;;;;;;5060386;28;9633;-72
2021/10/08 10:43:51;;;;;;;;;9.80;9.40;;;;;;;;5059454;28;8840;-70
2021/10/08 10:46:32;;;;;;;;;9.00;7.50;;;;;;;;5056107;28;8892;-72
2021/10/08 10:49:29;;;;;;;;;11.00;9.80;;;;;;;;5060978;28;8848;-72
2021/10/08 10:52:23;;;;;;;;;8.00;8.00;;;;;;;;5037052;28;8868;-73
2021/10/08 10:55:12;;;;;;;;;7.80;7.80;;;;;;;;5059638;28;8852;-73
2021/10/08 10:58:03;;;;;;;;;6.20;6.20;;;;;;;;5060772;28;8832;-73
2021/10/08 11:00:33;;;;;;;;;6.60;6.60;;;;;;;;5058460;28;8800;-73
2021/10/08 11:03:13;;;;;;;;;7.00;6.20;;;;;;;;5063171;28;8867;-73
2021/10/08 11:05:42;;;;;;;;;4.20;4.20;;;;;;;;5060141;28;8991;-74
2021/10/08 11:08:18;;;;;;;;;5.40;4.60;;;;;;;;5060134;28;8864;-73
2021/10/08 11:11:03;;;;;;;;;9.60;7.80;;;;;;;;5062259;28;8864;-74
2021/10/08 11:13:32;;;;;;;;;5.20;5.20;;;;;;;;5063220;28;8872;-73
2021/10/08 11:16:02;;;;;;;;;4.00;4.00;;;;;;;;5062273;28;8878;-74
2021/10/08 11:18:54;;;;;;;;;8.00;6.00;;;;;;;;5059962;28;9488;-75
2021/10/08 11:21:50;;;;;;;;;4.60;4.60;;;;;;;;5046402;28;8889;-74
2021/10/08 11:24:20;;;;;;;;;4.00;4.00;;;;;;;;5059602;28;8887;-75
2021/10/08 11:26:54;;;;;;;;;4.00;4.00;;;;;;;;5056722;28;8848;-73
2021/10/08 11:29:22;;;;;;;;;2.80;2.80;;;;;;;;5060206;28;8883;-75
2021/10/08 11:32:02;;;;;;;;;3.00;3.00;;;;;;;;5060434;28;8816;-75
2021/10/08 11:34:30;;;;;;;;;2.00;2.00;;;;;;;;5061936;28;8957;-74
2021/10/08 11:36:58;;;;;;;;;2.00;2.00;;;;;;;;5061156;28;8875;-75
2021/10/08 11:39:26;;;;;;;;;3.00;3.00;;;;;;;;5057880;28;8899;-74
2021/10/08 11:42:01;;;;;;;;;2.80;2.80;;;;;;;;5040849;28;8875;-75
2021/10/08 11:44:31;;;;;;;;;3.20;3.20;;;;;;;;5056425;28;8874;-74
2021/10/08 11:47:23;;;;;;;;;3.20;3.20;;;;;;;;5058822;28;8852;-74
2021/10/08 11:52:38;;;;;;;;;2.20;2.00;;;;;;;;5050972;28;8903;-74
2021/10/08 11:55:08;;;;;;;;;2.20;2.20;;;;;;;;5063835;28;8868;-74
2021/10/08 11:57:52;;;;;;;;;1.00;1.00;;;;;;;;5063294;28;8886;-75
2021/10/08 12:00:19;;;;;;;;;3.60;3.60;;;;;;;;5055217;28;9000;-74
2021/10/08 12:03:01;;;;;;;;;3.00;3.00;;;;;;;;5063159;28;8880;-75
2021/10/08 12:05:43;;;;;;;;;3.40;3.00;;;;;;;;5063258;28;8872;-76
2021/10/08 12:08:13;;;;;;;;;3.00;3.00;;;;;;;;5062086;28;8974;-75
2021/10/08 12:10:40;;;;;;;;;4.40;4.40;;;;;;;;5060633;28;8840;-76
2021/10/08 12:13:09;;;;;;;;;1.80;1.80;;;;;;;;5063054;28;8864;-76
2021/10/08 12:15:36;;;;;;;;;6.60;4.80;;;;;;;;5063751;28;8865;-75
2021/10/08 12:18:04;;;;;;;;;3.60;3.60;;;;;;;;5044693;28;8864;-75
2021/10/08 12:20:33;;;;;;;;;3.40;3.40;;;;;;;;5057799;28;8859;-75
2021/10/08 12:23:23;;;;;;;;;3.60;3.60;;;;;;;;5060868;28;9507;-75
2021/10/08 12:25:53;;;;;;;;;4.80;4.80;;;;;;;;5063609;28;8868;-74
2021/10/08 12:28:23;;;;;;;;;6.40;5.20;;;;;;;;5045517;28;8852;-75
2021/10/08 12:30:56;;;;;;;;;5.40;5.40;;;;;;;;5062397;28;8807;-74
2021/10/08 12:33:28;;;;;;;;;4.40;4.40;;;;;;;;5063816;28;8900;-74
2021/10/08 12:36:22;;;;;;;;;6.00;5.00;;;;;;;;5062234;28;8922;-74
2021/10/08 12:38:54;;;;;;;;;5.00;5.00;;;;;;;;5063702;28;9626;-74
2021/10/08 12:41:23;;;;;;;;;5.40;5.40;;;;;;;;5063301;28;8987;-74
2021/10/08 12:44:07;;;;;;;;;5.40;4.00;;;;;;;;5063181;28;8969;-74
2021/10/08 12:46:36;;;;;;;;;5.60;5.60;;;;;;;;5060838;28;8987;-76
2021/10/08 12:49:04;;;;;;;;;6.20;4.40;;;;;;;;5045080;28;8892;-75
2021/10/08 12:51:33;;;;;;;;;4.80;4.80;;;;;;;;5063987;28;8991;-75
2021/10/08 12:54:14;;;;;;;;;4.60;4.60;;;;;;;;5062545;28;8860;-75
2021/10/08 12:56:41;;;;;;;;;6.20;5.00;;;;;;;;5063051;28;8891;-74
2021/10/08 12:59:10;;;;;;;;;6.00;6.00;;;;;;;;5063654;28;8864;-75
2021/10/08 13:01:37;;;;;;;;;5.00;5.00;;;;;;;;5061466;28;8817;-75
2021/10/08 13:04:23;;;;;;;;;5.40;5.00;;;;;;;;5063295;28;8876;-75
2021/10/08 13:07:07;;;;;;;;;4.20;4.20;;;;;;;;5066059;28;8880;-76
2021/10/08 13:09:34;;;;;;;;;5.00;5.00;;;;;;;;5066254;28;8909;-75
2021/10/08 13:12:01;;;;;;;;;4.60;4.60;;;;;;;;5066837;28;8848;-76
2021/10/08 13:14:31;;;;;;;;;4.20;4.20;;;;;;;;5066039;28;8868;-76
2021/10/08 13:16:58;;;;;;;;;2.80;2.80;;;;;;;;5066854;28;8888;-76
2021/10/08 13:19:30;;;;;;;;;3.20;3.20;;;;;;;;5065824;28;8898;-75
2021/10/08 13:21:58;;;;;;;;;4.00;4.00;;;;;;;;5049582;28;8860;-75
2021/10/08 13:24:25;;;;;;;;;3.60;3.60;;;;;;;;5065911;28;8872;-75
2021/10/08 13:26:53;;;;;;;;;2.60;2.60;;;;;;;;5066731;28;8907;-75
2021/10/08 13:29:21;;;;;;;;;3.20;3.20;;;;;;;;5048400;28;8851;-75
2021/10/08 13:31:49;;;;;;;;;3.60;3.60;;;;;;;;5065422;28;8828;-75
2021/10/08 13:34:19;;;;;;;;;3.00;3.00;;;;;;;;5066508;28;8884;-75
2021/10/08 13:36:46;;;;;;;;;2.60;2.60;;;;;;;;5065735;28;8900;-75
2021/10/08 13:39:14;;;;;;;;;2.60;2.60;;;;;;;;5063880;28;8863;-75
2021/10/08 13:41:41;;;;;;;;;3.00;3.00;;;;;;;;5047296;28;9746;-75
2021/10/08 13:44:08;;;;;;;;;3.00;3.00;;;;;;;;5066631;28;8894;-75
2021/10/08 13:46:35;;;;;;;;;2.20;2.20;;;;;;;;5066037;28;8852;-74
2021/10/08 13:49:04;;;;;;;;;3.40;3.40;;;;;;;;5065260;28;8992;-75
2021/10/08 13:51:32;;;;;;;;;2.60;2.60;;;;;;;;5066687;28;8868;-75
2021/10/08 13:53:59;;;;;;;;;3.20;2.80;;;;;;;;5065086;28;8979;-74
2021/10/08 13:56:27;;;;;;;;;3.40;3.40;;;;;;;;5048363;28;9669;-74
2021/10/08 13:58:54;;;;;;;;;3.60;3.60;;;;;;;;5064878;28;8935;-75
2021/10/08 14:01:21;;;;;;;;;2.00;2.00;;;;;;;;5065381;28;8788;-75
2021/10/08 14:03:55;;;;;;;;;1.80;1.80;;;;;;;;5065436;28;8843;-75
2021/10/08 14:11:58;;;;;;;;;2.60;2.60;;;;;;;;5049432;28;8895;-75
2021/10/08 14:14:25;;;;;;;;;3.20;3.20;;;;;;;;5065701;28;8911;-75
2021/10/08 14:16:52;;;;;;;;;2.80;2.80;;;;;;;;5064735;28;8882;-75
2021/10/08 14:19:20;;;;;;;;;2.60;2.60;;;;;;;;5065972;28;9004;-75
2021/10/08 14:21:49;;;;;;;;;1.80;1.80;;;;;;;;5066165;28;8876;-75
2021/10/08 14:24:17;;;;;;;;;3.80;3.80;;;;;;;;5064963;28;8882;-75
2021/10/08 14:26:44;;;;;;;;;2.80;2.80;;;;;;;;5066029;28;8860;-75
2021/10/08 14:29:13;;;;;;;;;2.80;2.80;;;;;;;;5064302;28;8876;-75
2021/10/08 14:31:40;;;;;;;;;4.20;3.40;;;;;;;;5047381;28;8898;-76
2021/10/08 14:34:07;;;;;;;;;4.20;2.60;;;;;;;;5064775;28;8891;-75
2021/10/08 14:36:35;;;;;;;;;2.40;2.40;;;;;;;;5065030;28;8880;-76
2021/10/08 14:39:04;;;;;;;;;4.40;2.60;;;;;;;;5065167;28;8864;-75
2021/10/08 14:41:31;;;;;;;;;3.00;3.00;;;;;;;;5064041;28;8999;-75
2021/10/08 14:43:59;;;;;;;;;3.20;3.20;;;;;;;;5065361;28;8890;-75
2021/10/08 14:46:26;;;;;;;;;3.40;3.40;;;;;;;;5046417;28;8865;-75
2021/10/08 14:48:59;;;;;;;;;2.40;2.40;;;;;;;;5065597;28;8903;-75